Terminal Aerodrome Forecast
Issued by NWS Omaha/Valley, NE

Home | Current Version | Previous Version | Text Only | Print | Product List | Glossary On
Versions: 1 2 3 4 5 6 7 8 9 10 11 12 13 14 15 16 17 18 19 20 21 22 23 24 25 26 27 28 29 30 31 32 33 34 35 36 37 38 39 40 41 42
000
FTUS43 KOAX 222330
TAFOMA
TAF
KOMA 222330Z 2300/2324 31008KT 4SM -RA BR SCT025 OVC035
     FM230300 32008KT 5SM -RA BR OVC020
     FM230800 32012KT 3SM BR OVC012
     FM231800 33015KT 2SM -SN BR OVC006=

USA.gov is the U.S. government's official web portal to all federal, state and local government web resources and services.